sensor_id;sensor_type;location;lat;lon;timestamp;P1;durP1;ratioP1;P2;durP2;ratioP2
18322;SDS011;9287;49.456;11.064;2022-07-29T00:03:00;2.78;;;1.20;;
18322;SDS011;9287;49.456;11.064;2022-07-29T00:06:26;3.22;;;1.40;;
18322;SDS011;9287;49.456;11.064;2022-07-29T00:09:54;1.35;;;0.88;;
18322;SDS011;9287;49.456;11.064;2022-07-29T00:13:20;2.13;;;1.13;;
18322;SDS011;9287;49.456;11.064;2022-07-29T00:16:46;7.10;;;1.20;;
18322;SDS011;9287;49.456;11.064;2022-07-29T00:20:13;1.65;;;1.17;;
18322;SDS011;9287;49.456;11.064;2022-07-29T00:23:39;5.05;;;0.90;;
18322;SDS011;9287;49.456;11.064;2022-07-29T00:27:06;1.00;;;0.90;;
18322;SDS011;9287;49.456;11.064;2022-07-29T00:30:33;2.15;;;1.00;;
18322;SDS011;9287;49.456;11.064;2022-07-29T00:33:59;2.65;;;1.00;;
18322;SDS011;9287;49.456;11.064;2022-07-29T00:37:43;1.45;;;1.25;;
18322;SDS011;9287;49.456;11.064;2022-07-29T00:41:11;2.03;;;0.90;;
18322;SDS011;9287;49.456;11.064;2022-07-29T00:44:39;2.28;;;0.88;;
18322;SDS011;9287;49.456;11.064;2022-07-29T00:48:05;2.97;;;1.20;;
18322;SDS011;9287;49.456;11.064;2022-07-29T00:51:34;1.58;;;0.90;;
18322;SDS011;9287;49.456;11.064;2022-07-29T00:55:02;2.92;;;0.90;;
18322;SDS011;9287;49.456;11.064;2022-07-29T00:58:30;2.30;;;1.08;;
18322;SDS011;9287;49.456;11.064;2022-07-29T01:02:00;1.02;;;0.93;;
18322;SDS011;9287;49.456;11.064;2022-07-29T01:05:27;2.28;;;0.90;;
18322;SDS011;9287;49.456;11.064;2022-07-29T01:08:54;1.83;;;1.00;;
18322;SDS011;9287;49.456;11.064;2022-07-29T01:12:21;2.22;;;1.00;;
18322;SDS011;9287;49.456;11.064;2022-07-29T01:15:51;1.98;;;1.10;;
18322;SDS011;9287;49.456;11.064;2022-07-29T01:19:33;3.17;;;1.02;;
18322;SDS011;9287;49.456;11.064;2022-07-29T01:27:20;4.88;;;1.23;;
18322;SDS011;9287;49.456;11.064;2022-07-29T01:31:07;1.65;;;1.08;;
18322;SDS011;9287;49.456;11.064;2022-07-29T01:34:54;1.10;;;1.00;;
18322;SDS011;9287;49.456;11.064;2022-07-29T01:38:22;3.85;;;1.00;;
18322;SDS011;9287;49.456;11.064;2022-07-29T01:41:59;1.55;;;1.10;;
18322;SDS011;9287;49.456;11.064;2022-07-29T01:45:33;2.17;;;1.20;;
18322;SDS011;9287;49.456;11.064;2022-07-29T01:49:06;5.43;;;1.15;;
18322;SDS011;9287;49.456;11.064;2022-07-29T01:52:36;2.65;;;1.10;;
18322;SDS011;9287;49.456;11.064;2022-07-29T01:56:06;1.13;;;1.00;;
18322;SDS011;9287;49.456;11.064;2022-07-29T01:59:35;1.48;;;1.05;;
18322;SDS011;9287;49.456;11.064;2022-07-29T02:03:09;4.35;;;1.20;;
18322;SDS011;9287;49.456;11.064;2022-07-29T02:06:55;3.17;;;1.15;;
18322;SDS011;9287;49.456;11.064;2022-07-29T02:10:25;2.13;;;1.10;;
18322;SDS011;9287;49.456;11.064;2022-07-29T02:13:53;1.25;;;1.00;;
18322;SDS011;9287;49.456;11.064;2022-07-29T02:17:23;3.08;;;1.08;;
18322;SDS011;9287;49.456;11.064;2022-07-29T02:20:52;2.03;;;1.00;;
18322;SDS011;9287;49.456;11.064;2022-07-29T02:24:21;1.77;;;1.00;;
18322;SDS011;9287;49.456;11.064;2022-07-29T02:27:50;1.00;;;0.90;;
18322;SDS011;9287;49.456;11.064;2022-07-29T02:31:17;2.25;;;1.00;;
18322;SDS011;9287;49.456;11.064;2022-07-29T02:34:47;1.83;;;1.05;;
18322;SDS011;9287;49.456;11.064;2022-07-29T02:38:16;2.90;;;1.00;;
18322;SDS011;9287;49.456;11.064;2022-07-29T02:41:43;2.42;;;1.10;;
18322;SDS011;9287;49.456;11.064;2022-07-29T02:45:12;3.13;;;1.02;;
18322;SDS011;9287;49.456;11.064;2022-07-29T02:48:55;3.90;;;1.20;;
18322;SDS011;9287;49.456;11.064;2022-07-29T02:52:28;2.15;;;1.20;;
18322;SDS011;9287;49.456;11.064;2022-07-29T02:55:58;1.20;;;1.10;;
18322;SDS011;9287;49.456;11.064;2022-07-29T02:59:26;1.50;;;1.20;;
18322;SDS011;9287;49.456;11.064;2022-07-29T03:02:56;7.50;;;1.02;;
18322;SDS011;9287;49.456;11.064;2022-07-29T03:06:25;1.20;;;1.10;;
18322;SDS011;9287;49.456;11.064;2022-07-29T03:09:52;2.15;;;1.40;;
18322;SDS011;9287;49.456;11.064;2022-07-29T03:13:20;3.67;;;1.20;;
18322;SDS011;9287;49.456;11.064;2022-07-29T03:16:47;1.45;;;1.15;;
18322;SDS011;9287;49.456;11.064;2022-07-29T03:20:14;2.42;;;1.13;;
18322;SDS011;9287;49.456;11.064;2022-07-29T03:23:44;5.97;;;1.17;;
18322;SDS011;9287;49.456;11.064;2022-07-29T03:27:12;4.55;;;1.00;;
18322;SDS011;9287;49.456;11.064;2022-07-29T03:30:41;2.92;;;1.02;;
18322;SDS011;9287;49.456;11.064;2022-07-29T03:34:09;1.85;;;1.10;;
18322;SDS011;9287;49.456;11.064;2022-07-29T03:37:35;1.95;;;0.95;;
18322;SDS011;9287;49.456;11.064;2022-07-29T03:41:05;3.53;;;1.00;;
18322;SDS011;9287;49.456;11.064;2022-07-29T03:44:34;4.65;;;1.00;;
18322;SDS011;9287;49.456;11.064;2022-07-29T03:48:02;3.38;;;1.00;;
18322;SDS011;9287;49.456;11.064;2022-07-29T03:51:34;1.33;;;0.95;;
18322;SDS011;9287;49.456;11.064;2022-07-29T03:55:01;1.45;;;0.90;;
18322;SDS011;9287;49.456;11.064;2022-07-29T03:58:31;1.95;;;0.90;;
18322;SDS011;9287;49.456;11.064;2022-07-29T04:01:58;1.70;;;0.80;;
18322;SDS011;9287;49.456;11.064;2022-07-29T04:05:25;2.30;;;1.20;;
18322;SDS011;9287;49.456;11.064;2022-07-29T04:08:52;1.88;;;0.98;;
18322;SDS011;9287;49.456;11.064;2022-07-29T04:12:19;2.45;;;0.90;;
18322;SDS011;9287;49.456;11.064;2022-07-29T04:15:47;2.05;;;1.02;;
18322;SDS011;9287;49.456;11.064;2022-07-29T04:19:13;2.25;;;0.90;;
18322;SDS011;9287;49.456;11.064;2022-07-29T04:22:40;2.33;;;1.10;;
18322;SDS011;9287;49.456;11.064;2022-07-29T04:26:18;2.97;;;1.02;;
18322;SDS011;9287;49.456;11.064;2022-07-29T04:29:46;2.80;;;0.95;;
18322;SDS011;9287;49.456;11.064;2022-07-29T04:33:14;2.35;;;1.17;;
18322;SDS011;9287;49.456;11.064;2022-07-29T04:36:41;2.30;;;0.85;;
18322;SDS011;9287;49.456;11.064;2022-07-29T04:40:07;2.28;;;1.00;;
18322;SDS011;9287;49.456;11.064;2022-07-29T04:43:36;1.00;;;0.90;;
18322;SDS011;9287;49.456;11.064;2022-07-29T04:47:09;3.95;;;0.90;;
18322;SDS011;9287;49.456;11.064;2022-07-29T04:50:37;1.15;;;0.90;;
18322;SDS011;9287;49.456;11.064;2022-07-29T04:54:04;4.43;;;1.20;;
18322;SDS011;9287;49.456;11.064;2022-07-29T04:57:31;1.75;;;1.00;;
18322;SDS011;9287;49.456;11.064;2022-07-29T05:00:57;1.77;;;0.93;;
18322;SDS011;9287;49.456;11.064;2022-07-29T05:04:25;3.75;;;1.10;;
18322;SDS011;9287;49.456;11.064;2022-07-29T05:07:52;1.90;;;0.98;;
18322;SDS011;9287;49.456;11.064;2022-07-29T05:11:18;2.53;;;1.10;;
18322;SDS011;9287;49.456;11.064;2022-07-29T05:14:44;1.55;;;1.10;;
18322;SDS011;9287;49.456;11.064;2022-07-29T05:18:11;7.03;;;1.10;;
18322;SDS011;9287;49.456;11.064;2022-07-29T05:21:41;2.88;;;1.20;;
18322;SDS011;9287;49.456;11.064;2022-07-29T05:25:07;6.75;;;1.02;;
18322;SDS011;9287;49.456;11.064;2022-07-29T05:28:34;4.47;;;1.20;;
18322;SDS011;9287;49.456;11.064;2022-07-29T05:32:10;3.55;;;1.20;;
18322;SDS011;9287;49.456;11.064;2022-07-29T05:35:56;3.17;;;1.30;;
18322;SDS011;9287;49.456;11.064;2022-07-29T05:39:24;3.97;;;1.30;;
18322;SDS011;9287;49.456;11.064;2022-07-29T05:42:50;2.85;;;1.50;;
18322;SDS011;9287;49.456;11.064;2022-07-29T05:46:17;2.22;;;1.27;;
18322;SDS011;9287;49.456;11.064;2022-07-29T05:49:43;6.22;;;1.40;;
18322;SDS011;9287;49.456;11.064;2022-07-29T05:53:11;6.13;;;1.58;;
18322;SDS011;9287;49.456;11.064;2022-07-29T05:56:37;5.18;;;1.52;;
18322;SDS011;9287;49.456;11.064;2022-07-29T06:00:04;2.33;;;1.30;;
18322;SDS011;9287;49.456;11.064;2022-07-29T06:03:30;4.05;;;1.40;;
18322;SDS011;9287;49.456;11.064;2022-07-29T06:06:57;8.55;;;2.50;;
18322;SDS011;9287;49.456;11.064;2022-07-29T06:10:24;3.83;;;1.55;;
18322;SDS011;9287;49.456;11.064;2022-07-29T06:13:51;3.67;;;1.38;;
18322;SDS011;9287;49.456;11.064;2022-07-29T06:17:19;6.38;;;1.05;;
18322;SDS011;9287;49.456;11.064;2022-07-29T06:20:46;4.88;;;1.40;;
18322;SDS011;9287;49.456;11.064;2022-07-29T06:24:14;5.35;;;1.60;;
18322;SDS011;9287;49.456;11.064;2022-07-29T06:27:42;8.40;;;1.38;;
18322;SDS011;9287;49.456;11.064;2022-07-29T06:31:08;3.10;;;1.35;;
18322;SDS011;9287;49.456;11.064;2022-07-29T06:34:35;2.80;;;1.20;;
18322;SDS011;9287;49.456;11.064;2022-07-29T06:38:07;2.78;;;1.20;;
18322;SDS011;9287;49.456;11.064;2022-07-29T06:41:36;4.78;;;1.20;;
18322;SDS011;9287;49.456;11.064;2022-07-29T06:45:04;2.25;;;1.58;;
18322;SDS011;9287;49.456;11.064;2022-07-29T06:48:32;3.22;;;1.45;;
18322;SDS011;9287;49.456;11.064;2022-07-29T06:51:59;1.30;;;1.15;;
18322;SDS011;9287;49.456;11.064;2022-07-29T06:55:25;3.30;;;1.45;;
18322;SDS011;9287;49.456;11.064;2022-07-29T06:58:52;5.82;;;1.55;;
18322;SDS011;9287;49.456;11.064;2022-07-29T07:02:20;8.43;;;1.63;;
18322;SDS011;9287;49.456;11.064;2022-07-29T07:05:46;1.58;;;1.10;;
18322;SDS011;9287;49.456;11.064;2022-07-29T07:09:13;3.90;;;1.50;;
18322;SDS011;9287;49.456;11.064;2022-07-29T07:12:39;3.22;;;1.48;;
18322;SDS011;9287;49.456;11.064;2022-07-29T07:16:06;3.10;;;1.55;;
18322;SDS011;9287;49.456;11.064;2022-07-29T07:19:34;4.70;;;1.30;;
18322;SDS011;9287;49.456;11.064;2022-07-29T07:23:01;1.98;;;1.40;;
18322;SDS011;9287;49.456;11.064;2022-07-29T07:26:27;1.50;;;1.10;;
18322;SDS011;9287;49.456;11.064;2022-07-29T07:29:54;3.20;;;1.30;;
18322;SDS011;9287;49.456;11.064;2022-07-29T07:33:20;1.90;;;1.05;;
18322;SDS011;9287;49.456;11.064;2022-07-29T07:36:56;2.60;;;1.35;;
18322;SDS011;9287;49.456;11.064;2022-07-29T07:40:22;2.53;;;1.40;;
18322;SDS011;9287;49.456;11.064;2022-07-29T07:43:49;2.25;;;1.38;;
18322;SDS011;9287;49.456;11.064;2022-07-29T07:47:35;2.65;;;1.25;;
18322;SDS011;9287;49.456;11.064;2022-07-29T07:51:02;5.78;;;1.63;;
18322;SDS011;9287;49.456;11.064;2022-07-29T07:54:31;4.10;;;1.55;;
18322;SDS011;9287;49.456;11.064;2022-07-29T07:58:18;4.68;;;1.75;;
18322;SDS011;9287;49.456;11.064;2022-07-29T08:01:44;2.78;;;1.40;;
18322;SDS011;9287;49.456;11.064;2022-07-29T08:05:11;2.45;;;1.48;;
18322;SDS011;9287;49.456;11.064;2022-07-29T08:08:40;3.72;;;1.58;;
18322;SDS011;9287;49.456;11.064;2022-07-29T08:12:06;3.95;;;1.60;;
18322;SDS011;9287;49.456;11.064;2022-07-29T08:15:34;4.00;;;1.83;;
18322;SDS011;9287;49.456;11.064;2022-07-29T08:19:00;3.33;;;1.38;;
18322;SDS011;9287;49.456;11.064;2022-07-29T08:22:28;5.55;;;1.45;;
18322;SDS011;9287;49.456;11.064;2022-07-29T08:26:16;2.22;;;1.35;;
18322;SDS011;9287;49.456;11.064;2022-07-29T08:30:04;3.80;;;1.40;;
18322;SDS011;9287;49.456;11.064;2022-07-29T08:33:31;2.80;;;1.50;;
18322;SDS011;9287;49.456;11.064;2022-07-29T08:36:58;3.63;;;1.40;;
18322;SDS011;9287;49.456;11.064;2022-07-29T08:40:25;6.63;;;1.40;;
18322;SDS011;9287;49.456;11.064;2022-07-29T08:43:53;2.38;;;1.40;;
18322;SDS011;9287;49.456;11.064;2022-07-29T08:47:20;4.32;;;0.93;;
18322;SDS011;9287;49.456;11.064;2022-07-29T08:50:49;4.30;;;1.10;;
18322;SDS011;9287;49.456;11.064;2022-07-29T08:54:20;1.42;;;1.20;;
18322;SDS011;9287;49.456;11.064;2022-07-29T08:57:48;1.63;;;1.23;;
18322;SDS011;9287;49.456;11.064;2022-07-29T09:01:21;3.67;;;1.08;;
18322;SDS011;9287;49.456;11.064;2022-07-29T09:04:49;1.40;;;1.13;;
18322;SDS011;9287;49.456;11.064;2022-07-29T09:08:16;4.20;;;1.13;;
18322;SDS011;9287;49.456;11.064;2022-07-29T09:11:42;2.38;;;1.30;;
18322;SDS011;9287;49.456;11.064;2022-07-29T09:15:10;7.65;;;1.40;;
18322;SDS011;9287;49.456;11.064;2022-07-29T09:18:37;3.28;;;1.40;;
18322;SDS011;9287;49.456;11.064;2022-07-29T09:22:10;3.85;;;1.40;;
18322;SDS011;9287;49.456;11.064;2022-07-29T09:25:48;1.52;;;1.30;;
18322;SDS011;9287;49.456;11.064;2022-07-29T09:29:15;5.07;;;1.58;;
18322;SDS011;9287;49.456;11.064;2022-07-29T09:32:57;2.75;;;1.40;;
18322;SDS011;9287;49.456;11.064;2022-07-29T09:36:25;3.58;;;1.60;;
18322;SDS011;9287;49.456;11.064;2022-07-29T09:39:55;2.40;;;1.13;;
18322;SDS011;9287;49.456;11.064;2022-07-29T09:43:31;2.38;;;1.40;;
18322;SDS011;9287;49.456;11.064;2022-07-29T09:47:12;3.75;;;1.52;;
18322;SDS011;9287;49.456;11.064;2022-07-29T09:50:43;2.85;;;1.30;;
18322;SDS011;9287;49.456;11.064;2022-07-29T09:54:20;2.22;;;1.50;;
18322;SDS011;9287;49.456;11.064;2022-07-29T09:57:47;3.78;;;1.50;;
18322;SDS011;9287;49.456;11.064;2022-07-29T10:01:13;2.45;;;1.30;;
18322;SDS011;9287;49.456;11.064;2022-07-29T10:04:49;1.65;;;1.55;;
18322;SDS011;9287;49.456;11.064;2022-07-29T10:08:31;1.40;;;1.30;;
18322;SDS011;9287;49.456;11.064;2022-07-29T10:12:07;1.63;;;1.33;;
18322;SDS011;9287;49.456;11.064;2022-07-29T10:15:41;1.45;;;1.35;;
18322;SDS011;9287;49.456;11.064;2022-07-29T10:19:10;2.25;;;1.45;;
18322;SDS011;9287;49.456;11.064;2022-07-29T10:22:41;4.80;;;1.67;;
18322;SDS011;9287;49.456;11.064;2022-07-29T10:26:12;4.40;;;1.65;;
18322;SDS011;9287;49.456;11.064;2022-07-29T10:29:39;2.92;;;1.48;;
18322;SDS011;9287;49.456;11.064;2022-07-29T10:33:13;1.60;;;1.50;;
18322;SDS011;9287;49.456;11.064;2022-07-29T10:36:53;2.65;;;1.88;;
18322;SDS011;9287;49.456;11.064;2022-07-29T10:40:34;4.03;;;1.48;;
18322;SDS011;9287;49.456;11.064;2022-07-29T10:44:24;4.00;;;1.77;;
18322;SDS011;9287;49.456;11.064;2022-07-29T10:48:02;1.92;;;1.73;;
18322;SDS011;9287;49.456;11.064;2022-07-29T10:51:57;2.45;;;2.25;;
18322;SDS011;9287;49.456;11.064;2022-07-29T10:54:42;2.72;;;1.92;;
18322;SDS011;9287;49.456;11.064;2022-07-29T10:57:14;3.33;;;1.50;;
18322;SDS011;9287;49.456;11.064;2022-07-29T10:59:42;3.38;;;1.80;;
18322;SDS011;9287;49.456;11.064;2022-07-29T11:05:09;1.92;;;1.70;;
18322;SDS011;9287;49.456;11.064;2022-07-29T11:07:39;2.28;;;1.65;;
18322;SDS011;9287;49.456;11.064;2022-07-29T11:10:23;3.85;;;2.15;;
18322;SDS011;9287;49.456;11.064;2022-07-29T11:12:56;3.08;;;1.65;;
18322;SDS011;9287;49.456;11.064;2022-07-29T11:15:24;6.93;;;1.98;;
18322;SDS011;9287;49.456;11.064;2022-07-29T11:18:03;2.95;;;1.70;;
18322;SDS011;9287;49.456;11.064;2022-07-29T11:20:35;3.38;;;2.00;;
18322;SDS011;9287;49.456;11.064;2022-07-29T11:26:12;3.45;;;1.70;;
18322;SDS011;9287;49.456;11.064;2022-07-29T11:28:48;2.10;;;1.90;;
18322;SDS011;9287;49.456;11.064;2022-07-29T11:31:19;2.20;;;2.00;;
18322;SDS011;9287;49.456;11.064;2022-07-29T11:39:27;2.25;;;2.10;;
18322;SDS011;9287;49.456;11.064;2022-07-29T11:45:02;2.33;;;2.13;;
18322;SDS011;9287;49.456;11.064;2022-07-29T11:47:52;2.67;;;2.47;;
18322;SDS011;9287;49.456;11.064;2022-07-29T11:50:28;3.63;;;1.90;;
18322;SDS011;9287;49.456;11.064;2022-07-29T11:52:58;2.22;;;2.03;;
18322;SDS011;9287;49.456;11.064;2022-07-29T11:55:26;2.38;;;2.17;;
18322;SDS011;9287;49.456;11.064;2022-07-29T11:57:59;5.60;;;2.33;;
18322;SDS011;9287;49.456;11.064;2022-07-29T12:00:32;2.15;;;1.90;;
18322;SDS011;9287;49.456;11.064;2022-07-29T12:03:01;2.47;;;2.28;;
18322;SDS011;9287;49.456;11.064;2022-07-29T12:05:35;1.92;;;1.77;;
18322;SDS011;9287;49.456;11.064;2022-07-29T12:08:12;2.50;;;2.30;;
18322;SDS011;9287;49.456;11.064;2022-07-29T12:10:40;2.70;;;1.80;;
18322;SDS011;9287;49.456;11.064;2022-07-29T12:13:09;2.00;;;1.77;;
18322;SDS011;9287;49.456;11.064;2022-07-29T12:15:39;1.83;;;1.73;;
18322;SDS011;9287;49.456;11.064;2022-07-29T12:18:16;9.50;;;2.22;;
18322;SDS011;9287;49.456;11.064;2022-07-29T12:20:44;1.80;;;1.67;;
18322;SDS011;9287;49.456;11.064;2022-07-29T12:23:12;3.70;;;2.22;;
18322;SDS011;9287;49.456;11.064;2022-07-29T12:25:42;2.05;;;1.92;;
18322;SDS011;9287;49.456;11.064;2022-07-29T12:28:15;2.58;;;2.30;;
18322;SDS011;9287;49.456;11.064;2022-07-29T12:30:54;3.20;;;2.00;;
18322;SDS011;9287;49.456;11.064;2022-07-29T12:33:22;7.28;;;2.47;;
18322;SDS011;9287;49.456;11.064;2022-07-29T12:35:51;2.90;;;2.70;;
18322;SDS011;9287;49.456;11.064;2022-07-29T12:38:33;2.70;;;2.50;;
18322;SDS011;9287;49.456;11.064;2022-07-29T12:41:01;2.60;;;2.40;;
18322;SDS011;9287;49.456;11.064;2022-07-29T12:43:30;3.28;;;2.60;;
18322;SDS011;9287;49.456;11.064;2022-07-29T12:46:11;2.28;;;2.17;;
18322;SDS011;9287;49.456;11.064;2022-07-29T12:48:39;2.63;;;2.30;;
18322;SDS011;9287;49.456;11.064;2022-07-29T12:51:08;4.28;;;2.83;;
18322;SDS011;9287;49.456;11.064;2022-07-29T12:53:37;2.17;;;2.08;;
18322;SDS011;9287;49.456;11.064;2022-07-29T12:56:05;2.63;;;2.42;;
18322;SDS011;9287;49.456;11.064;2022-07-29T12:58:53;3.08;;;2.47;;
18322;SDS011;9287;49.456;11.064;2022-07-29T13:01:22;2.70;;;2.42;;
18322;SDS011;9287;49.456;11.064;2022-07-29T13:03:51;2.80;;;2.22;;
18322;SDS011;9287;49.456;11.064;2022-07-29T13:06:30;2.58;;;2.38;;
18322;SDS011;9287;49.456;11.064;2022-07-29T13:09:02;4.88;;;3.22;;
18322;SDS011;9287;49.456;11.064;2022-07-29T13:11:31;2.55;;;1.90;;
18322;SDS011;9287;49.456;11.064;2022-07-29T13:13:59;2.78;;;1.90;;
18322;SDS011;9287;49.456;11.064;2022-07-29T13:16:33;3.55;;;2.33;;
18322;SDS011;9287;49.456;11.064;2022-07-29T13:19:05;3.20;;;2.00;;
18322;SDS011;9287;49.456;11.064;2022-07-29T13:21:33;12.35;;;2.60;;
18322;SDS011;9287;49.456;11.064;2022-07-29T13:24:02;2.72;;;2.38;;
18322;SDS011;9287;49.456;11.064;2022-07-29T13:26:29;2.38;;;2.15;;
18322;SDS011;9287;49.456;11.064;2022-07-29T13:29:00;3.65;;;2.88;;
18322;SDS011;9287;49.456;11.064;2022-07-29T13:31:28;2.67;;;2.25;;
18322;SDS011;9287;49.456;11.064;2022-07-29T13:33:57;2.53;;;2.05;;
18322;SDS011;9287;49.456;11.064;2022-07-29T13:36:24;2.03;;;1.73;;
18322;SDS011;9287;49.456;11.064;2022-07-29T13:38:53;4.03;;;2.70;;
18322;SDS011;9287;49.456;11.064;2022-07-29T13:41:20;4.25;;;2.20;;
18322;SDS011;9287;49.456;11.064;2022-07-29T13:43:51;2.67;;;2.05;;
18322;SDS011;9287;49.456;11.064;2022-07-29T13:46:20;3.15;;;2.00;;
18322;SDS011;9287;49.456;11.064;2022-07-29T13:48:48;2.38;;;2.15;;
18322;SDS011;9287;49.456;11.064;2022-07-29T13:51:17;5.18;;;1.60;;
18322;SDS011;9287;49.456;11.064;2022-07-29T13:53:45;2.47;;;1.70;;
18322;SDS011;9287;49.456;11.064;2022-07-29T13:56:13;3.70;;;1.48;;
18322;SDS011;9287;49.456;11.064;2022-07-29T13:58:41;3.30;;;1.00;;
18322;SDS011;9287;49.456;11.064;2022-07-29T14:01:08;1.25;;;1.10;;
18322;SDS011;9287;49.456;11.064;2022-07-29T14:03:37;3.35;;;1.55;;
18322;SDS011;9287;49.456;11.064;2022-07-29T14:06:11;1.92;;;1.02;;
18322;SDS011;9287;49.456;11.064;2022-07-29T14:08:41;2.13;;;1.50;;
18322;SDS011;9287;49.456;11.064;2022-07-29T14:11:09;1.38;;;0.90;;
18322;SDS011;9287;49.456;11.064;2022-07-29T14:13:36;2.63;;;1.75;;
18322;SDS011;9287;49.456;11.064;2022-07-29T14:16:05;5.72;;;1.73;;
18322;SDS011;9287;49.456;11.064;2022-07-29T14:18:33;3.05;;;1.70;;
18322;SDS011;9287;49.456;11.064;2022-07-29T14:21:00;2.45;;;1.70;;
18322;SDS011;9287;49.456;11.064;2022-07-29T14:23:28;2.65;;;1.58;;
18322;SDS011;9287;49.456;11.064;2022-07-29T14:25:57;1.60;;;1.50;;
18322;SDS011;9287;49.456;11.064;2022-07-29T14:28:25;4.22;;;1.92;;
18322;SDS011;9287;49.456;11.064;2022-07-29T14:30:53;1.95;;;1.55;;
18322;SDS011;9287;49.456;11.064;2022-07-29T14:33:21;1.70;;;1.60;;
18322;SDS011;9287;49.456;11.064;2022-07-29T14:35:49;2.38;;;1.80;;
18322;SDS011;9287;49.456;11.064;2022-07-29T14:38:16;1.77;;;1.67;;
18322;SDS011;9287;49.456;11.064;2022-07-29T14:40:44;3.72;;;1.80;;
18322;SDS011;9287;49.456;11.064;2022-07-29T14:43:17;1.70;;;1.60;;
18322;SDS011;9287;49.456;11.064;2022-07-29T14:45:47;3.97;;;1.63;;
18322;SDS011;9287;49.456;11.064;2022-07-29T14:48:14;4.78;;;1.85;;
18322;SDS011;9287;49.456;11.064;2022-07-29T14:50:42;9.32;;;1.98;;
18322;SDS011;9287;49.456;11.064;2022-07-29T14:53:10;4.15;;;1.80;;
18322;SDS011;9287;49.456;11.064;2022-07-29T14:55:39;3.45;;;1.75;;
18322;SDS011;9287;49.456;11.064;2022-07-29T14:58:08;1.70;;;1.60;;
18322;SDS011;9287;49.456;11.064;2022-07-29T15:00:43;2.70;;;1.83;;
18322;SDS011;9287;49.456;11.064;2022-07-29T15:03:10;4.10;;;1.73;;
18322;SDS011;9287;49.456;11.064;2022-07-29T15:05:49;3.75;;;1.50;;
18322;SDS011;9287;49.456;11.064;2022-07-29T15:08:16;5.13;;;2.95;;
18322;SDS011;9287;49.456;11.064;2022-07-29T15:10:44;2.17;;;1.98;;
18322;SDS011;9287;49.456;11.064;2022-07-29T15:13:12;2.08;;;1.70;;
18322;SDS011;9287;49.456;11.064;2022-07-29T15:15:39;5.45;;;1.90;;
18322;SDS011;9287;49.456;11.064;2022-07-29T15:18:09;2.75;;;2.40;;
18322;SDS011;9287;49.456;11.064;2022-07-29T15:20:36;3.35;;;3.05;;
18322;SDS011;9287;49.456;11.064;2022-07-29T15:23:04;5.07;;;2.08;;
18322;SDS011;9287;49.456;11.064;2022-07-29T15:25:35;7.72;;;1.75;;
18322;SDS011;9287;49.456;11.064;2022-07-29T15:28:03;2.15;;;1.90;;
18322;SDS011;9287;49.456;11.064;2022-07-29T15:30:33;2.30;;;1.70;;
18322;SDS011;9287;49.456;11.064;2022-07-29T15:33:02;2.50;;;2.30;;
18322;SDS011;9287;49.456;11.064;2022-07-29T15:35:31;6.10;;;4.50;;
18322;SDS011;9287;49.456;11.064;2022-07-29T15:38:05;2.35;;;2.10;;
18322;SDS011;9287;49.456;11.064;2022-07-29T15:40:33;3.90;;;2.65;;
18322;SDS011;9287;49.456;11.064;2022-07-29T15:43:02;2.50;;;2.30;;
18322;SDS011;9287;49.456;11.064;2022-07-29T15:45:34;4.68;;;2.90;;
18322;SDS011;9287;49.456;11.064;2022-07-29T15:48:06;4.38;;;4.05;;
18322;SDS011;9287;49.456;11.064;2022-07-29T15:50:36;4.03;;;2.63;;
18322;SDS011;9287;49.456;11.064;2022-07-29T15:53:03;3.30;;;3.00;;
18322;SDS011;9287;49.456;11.064;2022-07-29T15:55:31;4.22;;;2.03;;
18322;SDS011;9287;49.456;11.064;2022-07-29T15:57:59;9.00;;;5.15;;
18322;SDS011;9287;49.456;11.064;2022-07-29T16:00:27;3.25;;;2.38;;
18322;SDS011;9287;49.456;11.064;2022-07-29T16:02:54;4.05;;;3.33;;
18322;SDS011;9287;49.456;11.064;2022-07-29T16:05:22;3.88;;;3.05;;
18322;SDS011;9287;49.456;11.064;2022-07-29T16:07:52;3.92;;;2.83;;
18322;SDS011;9287;49.456;11.064;2022-07-29T16:10:19;6.05;;;4.15;;
18322;SDS011;9287;49.456;11.064;2022-07-29T16:12:47;3.40;;;3.17;;
18322;SDS011;9287;49.456;11.064;2022-07-29T16:15:15;3.90;;;3.33;;
18322;SDS011;9287;49.456;11.064;2022-07-29T16:17:42;5.57;;;3.83;;
18322;SDS011;9287;49.456;11.064;2022-07-29T16:20:10;4.30;;;3.78;;
18322;SDS011;9287;49.456;11.064;2022-07-29T16:22:40;4.03;;;3.72;;
18322;SDS011;9287;49.456;11.064;2022-07-29T16:25:09;9.30;;;8.10;;
18322;SDS011;9287;49.456;11.064;2022-07-29T16:27:37;4.85;;;4.45;;
18322;SDS011;9287;49.456;11.064;2022-07-29T16:30:05;6.10;;;5.50;;
18322;SDS011;9287;49.456;11.064;2022-07-29T16:32:34;6.45;;;4.95;;
18322;SDS011;9287;49.456;11.064;2022-07-29T16:35:02;4.90;;;4.40;;
18322;SDS011;9287;49.456;11.064;2022-07-29T16:37:30;5.90;;;5.40;;
18322;SDS011;9287;49.456;11.064;2022-07-29T16:40:00;5.53;;;5.03;;
18322;SDS011;9287;49.456;11.064;2022-07-29T16:42:29;4.43;;;4.13;;
18322;SDS011;9287;49.456;11.064;2022-07-29T16:45:12;3.28;;;3.08;;
18322;SDS011;9287;49.456;11.064;2022-07-29T16:47:40;3.70;;;3.40;;
18322;SDS011;9287;49.456;11.064;2022-07-29T16:50:08;3.72;;;3.42;;
18322;SDS011;9287;49.456;11.064;2022-07-29T16:52:36;5.50;;;4.97;;
18322;SDS011;9287;49.456;11.064;2022-07-29T16:55:04;4.68;;;4.18;;
18322;SDS011;9287;49.456;11.064;2022-07-29T16:57:33;3.95;;;2.95;;
18322;SDS011;9287;49.456;11.064;2022-07-29T17:00:01;3.38;;;3.03;;
18322;SDS011;9287;49.456;11.064;2022-07-29T17:02:29;4.35;;;3.40;;
18322;SDS011;9287;49.456;11.064;2022-07-29T17:04:59;4.45;;;3.67;;
18322;SDS011;9287;49.456;11.064;2022-07-29T17:07:36;6.95;;;4.28;;
18322;SDS011;9287;49.456;11.064;2022-07-29T17:10:04;4.07;;;2.97;;
18322;SDS011;9287;49.456;11.064;2022-07-29T17:12:34;3.25;;;3.00;;
18322;SDS011;9287;49.456;11.064;2022-07-29T17:15:03;7.30;;;4.05;;
18322;SDS011;9287;49.456;11.064;2022-07-29T17:17:31;5.03;;;4.63;;
18322;SDS011;9287;49.456;11.064;2022-07-29T17:20:19;4.40;;;3.75;;
18322;SDS011;9287;49.456;11.064;2022-07-29T17:22:46;4.22;;;3.28;;
18322;SDS011;9287;49.456;11.064;2022-07-29T17:25:14;3.38;;;2.85;;
18322;SDS011;9287;49.456;11.064;2022-07-29T17:27:47;3.03;;;2.83;;
18322;SDS011;9287;49.456;11.064;2022-07-29T17:30:16;3.70;;;2.97;;
18322;SDS011;9287;49.456;11.064;2022-07-29T17:32:45;10.95;;;9.85;;
18322;SDS011;9287;49.456;11.064;2022-07-29T17:35:13;3.47;;;3.08;;
18322;SDS011;9287;49.456;11.064;2022-07-29T17:37:58;2.85;;;2.65;;
18322;SDS011;9287;49.456;11.064;2022-07-29T17:40:26;4.55;;;3.33;;
18322;SDS011;9287;49.456;11.064;2022-07-29T17:42:55;3.13;;;2.83;;
18322;SDS011;9287;49.456;11.064;2022-07-29T17:45:22;2.70;;;2.50;;
18322;SDS011;9287;49.456;11.064;2022-07-29T17:47:50;2.47;;;2.28;;
18322;SDS011;9287;49.456;11.064;2022-07-29T17:50:17;2.85;;;2.17;;
18322;SDS011;9287;49.456;11.064;2022-07-29T17:52:45;2.22;;;2.03;;
18322;SDS011;9287;49.456;11.064;2022-07-29T17:55:13;1.98;;;1.88;;
18322;SDS011;9287;49.456;11.064;2022-07-29T17:57:41;4.13;;;2.53;;
18322;SDS011;9287;49.456;11.064;2022-07-29T18:00:10;3.03;;;2.63;;
18322;SDS011;9287;49.456;11.064;2022-07-29T18:02:38;5.85;;;5.25;;
18322;SDS011;9287;49.456;11.064;2022-07-29T18:05:06;10.88;;;7.32;;
18322;SDS011;9287;49.456;11.064;2022-07-29T18:07:34;3.70;;;3.40;;
18322;SDS011;9287;49.456;11.064;2022-07-29T18:10:02;4.70;;;2.40;;
18322;SDS011;9287;49.456;11.064;2022-07-29T18:12:30;2.58;;;2.00;;
18322;SDS011;9287;49.456;11.064;2022-07-29T18:14:58;2.03;;;1.83;;
18322;SDS011;9287;49.456;11.064;2022-07-29T18:17:27;2.20;;;2.10;;
18322;SDS011;9287;49.456;11.064;2022-07-29T18:20:14;2.20;;;2.10;;
18322;SDS011;9287;49.456;11.064;2022-07-29T18:22:42;2.83;;;2.50;;
18322;SDS011;9287;49.456;11.064;2022-07-29T18:25:09;3.00;;;2.60;;
18322;SDS011;9287;49.456;11.064;2022-07-29T18:27:38;9.02;;;7.65;;
18322;SDS011;9287;49.456;11.064;2022-07-29T18:30:06;2.35;;;2.15;;